createdAt,value
2017-07-31T00:00:16.692Z,0
2017-07-31T00:01:38.877Z,0
2017-07-31T00:03:01.481Z,0
2017-07-31T00:04:24.263Z,0
2017-07-31T00:05:46.456Z,0
2017-07-31T00:07:09.058Z,0
2017-07-31T00:08:30.949Z,0
2017-07-31T00:09:52.920Z,0
2017-07-31T00:11:15.070Z,0
2017-07-31T00:12:36.920Z,0
2017-07-31T00:13:59.090Z,0
2017-07-31T00:15:20.870Z,0
2017-07-31T00:16:43.041Z,0
2017-07-31T00:18:05.163Z,0
2017-07-31T00:19:27.076Z,0
2017-07-31T00:20:49.524Z,0
2017-07-31T00:22:11.353Z,0
2017-07-31T00:23:33.589Z,0
2017-07-31T00:24:55.446Z,0
2017-07-31T00:26:17.981Z,0
2017-07-31T00:27:40.130Z,0
2017-07-31T00:29:02.611Z,0
2017-07-31T00:30:24.441Z,0
2017-07-31T00:31:46.219Z,0
2017-07-31T00:33:07.441Z,0
2017-07-31T00:34:29.915Z,0
2017-07-31T00:35:51.889Z,0
2017-07-31T00:37:14.611Z,0
2017-07-31T00:38:36.569Z,0
2017-07-31T00:39:58.777Z,0
2017-07-31T00:41:20.320Z,0
2017-07-31T00:42:42.095Z,0
2017-07-31T00:44:03.698Z,0
2017-07-31T00:45:25.842Z,0
2017-07-31T00:46:48.050Z,0
2017-07-31T00:48:10.496Z,0
2017-07-31T00:49:32.320Z,0
2017-07-31T00:50:54.170Z,0
2017-07-31T00:52:16.641Z,0
2017-07-31T00:53:39.216Z,0
2017-07-31T00:55:01.042Z,0
2017-07-31T00:56:22.927Z,0
2017-07-31T00:57:45.540Z,0
2017-07-31T00:59:07.979Z,0
2017-07-31T01:00:30.131Z,0
2017-07-31T01:01:52.284Z,0
2017-07-31T01:03:14.745Z,0
2017-07-31T01:04:37.280Z,0
2017-07-31T01:05:59.514Z,0
2017-07-31T01:07:21.660Z,0
2017-07-31T01:08:43.818Z,0
2017-07-31T01:10:05.630Z,0
2017-07-31T01:11:27.461Z,0
2017-07-31T01:12:49.319Z,0
2017-07-31T01:14:11.161Z,0
2017-07-31T01:15:33.940Z,0
2017-07-31T01:16:55.779Z,0
2017-07-31T01:18:17.950Z,0
2017-07-31T01:19:40.408Z,0
2017-07-31T01:21:02.619Z,0
2017-07-31T01:22:24.458Z,0
2017-07-31T01:23:46.329Z,0
2017-07-31T01:25:08.871Z,0
2017-07-31T01:26:31.699Z,0
2017-07-31T01:27:54.167Z,0
2017-07-31T01:29:15.374Z,0
2017-07-31T01:30:37.889Z,0
2017-07-31T01:31:59.662Z,0
2017-07-31T01:33:22.305Z,0
2017-07-31T01:34:44.769Z,0
2017-07-31T01:36:06.450Z,0
2017-07-31T01:37:28.851Z,0
2017-07-31T01:38:50.687Z,0
2017-07-31T01:40:12.223Z,0
2017-07-31T01:41:33.789Z,0
2017-07-31T01:42:55.661Z,0
2017-07-31T01:44:17.829Z,0
2017-07-31T01:45:38.708Z,0
2017-07-31T01:47:00.234Z,0
2017-07-31T01:48:23.100Z,0
2017-07-31T01:49:45.590Z,0
2017-07-31T01:51:07.110Z,0
2017-07-31T01:52:29.271Z,0
2017-07-31T01:53:51.119Z,0
2017-07-31T01:55:13.040Z,0
2017-07-31T01:56:34.880Z,0
2017-07-31T01:57:57.042Z,0
2017-07-31T01:59:19.449Z,0
2017-07-31T02:00:40.965Z,0
2017-07-31T02:02:02.786Z,0
2017-07-31T02:03:24.309Z,0
2017-07-31T02:04:46.454Z,0
2017-07-31T02:06:08.349Z,0
2017-07-31T02:07:29.890Z,0
2017-07-31T02:08:51.839Z,0
2017-07-31T02:10:14.022Z,0
2017-07-31T02:11:36.037Z,0
2017-07-31T02:12:58.523Z,0
2017-07-31T02:14:20.971Z,0
2017-07-31T02:15:43.451Z,0
2017-07-31T02:17:05.320Z,0
2017-07-31T02:18:27.587Z,0
2017-07-31T02:19:50.059Z,0
2017-07-31T02:21:11.661Z,0
2017-07-31T02:22:33.850Z,0
2017-07-31T02:23:56.009Z,0
2017-07-31T02:25:17.530Z,0
2017-07-31T02:26:40.044Z,0
2017-07-31T02:28:01.548Z,0
2017-07-31T02:29:23.380Z,0
2017-07-31T02:30:45.221Z,0
2017-07-31T02:32:07.730Z,0
2017-07-31T02:33:29.558Z,0
2017-07-31T02:34:51.411Z,0
2017-07-31T02:36:13.241Z,0
2017-07-31T02:37:35.367Z,0
2017-07-31T02:38:57.599Z,0
2017-07-31T02:40:19.470Z,0
2017-07-31T02:41:40.989Z,0
2017-07-31T02:43:03.129Z,0
2017-07-31T02:44:24.980Z,0
2017-07-31T02:45:46.826Z,0
2017-07-31T02:47:08.041Z,0
2017-07-31T02:48:30.432Z,0
2017-07-31T02:49:52.921Z,0
2017-07-31T02:51:15.082Z,0
2017-07-31T02:52:36.919Z,0
2017-07-31T02:53:58.822Z,0
2017-07-31T02:55:20.327Z,0
2017-07-31T02:56:41.890Z,0
2017-07-31T02:58:04.367Z,0
2017-07-31T02:59:26.461Z,0
2017-07-31T03:00:48.290Z,0
2017-07-31T03:02:10.438Z,0
2017-07-31T03:03:32.600Z,0
2017-07-31T03:04:54.812Z,0
2017-07-31T03:06:16.510Z,0
2017-07-31T03:07:37.714Z,0
2017-07-31T03:08:59.870Z,0
2017-07-31T03:10:22.311Z,0
2017-07-31T03:11:44.141Z,0
2017-07-31T03:13:05.329Z,0
2017-07-31T03:14:27.478Z,0
2017-07-31T03:15:50.219Z,0
2017-07-31T03:17:11.740Z,0
2017-07-31T03:18:34.022Z,0
2017-07-31T03:19:55.859Z,0
2017-07-31T03:21:18.297Z,0
2017-07-31T03:22:40.141Z,0
2017-07-31T03:24:02.725Z,0
2017-07-31T03:25:24.942Z,0
2017-07-31T03:26:47.712Z,0
2017-07-31T03:28:09.541Z,0
2017-07-31T03:29:31.430Z,0
2017-07-31T03:30:53.584Z,0
2017-07-31T03:32:15.679Z,0
2017-07-31T03:33:37.890Z,0
2017-07-31T03:35:00.050Z,0
2017-07-31T03:36:21.880Z,0
2017-07-31T03:37:44.030Z,5
2017-07-31T03:39:06.178Z,5
2017-07-31T03:40:28.022Z,5
2017-07-31T03:41:50.179Z,5
2017-07-31T03:43:12.370Z,5
2017-07-31T03:44:34.530Z,5
2017-07-31T03:45:56.500Z,10
2017-07-31T03:47:18.324Z,10
2017-07-31T03:48:40.247Z,10
2017-07-31T03:50:02.475Z,10
2017-07-31T03:51:23.760Z,15
2017-07-31T03:52:46.231Z,15
2017-07-31T03:54:08.650Z,20
2017-07-31T03:55:30.515Z,20
2017-07-31T03:56:52.438Z,20
2017-07-31T03:58:14.679Z,20
2017-07-31T03:59:36.770Z,25
2017-07-31T04:00:58.782Z,25
2017-07-31T04:02:20.707Z,30
2017-07-31T04:03:42.883Z,35
2017-07-31T04:05:05.418Z,35
2017-07-31T04:06:26.983Z,40
2017-07-31T04:07:48.822Z,40
2017-07-31T04:09:11.298Z,45
2017-07-31T04:10:33.468Z,45
2017-07-31T04:11:55.282Z,50
2017-07-31T04:13:16.868Z,50
2017-07-31T04:14:39.142Z,50
2017-07-31T04:16:01.962Z,50
2017-07-31T04:17:24.163Z,50
2017-07-31T04:18:46.311Z,50
2017-07-31T04:20:08.534Z,50
2017-07-31T04:21:31.336Z,50
2017-07-31T04:22:53.179Z,55
2017-07-31T04:24:15.119Z,55
2017-07-31T04:25:36.784Z,55
2017-07-31T04:26:59.370Z,60
2017-07-31T04:28:20.944Z,60
2017-07-31T04:29:43.175Z,60
2017-07-31T04:31:05.010Z,65
2017-07-31T04:32:26.993Z,65
2017-07-31T04:33:48.910Z,65
2017-07-31T04:35:10.128Z,70
2017-07-31T04:36:32.144Z,75
2017-07-31T04:37:54.561Z,85
2017-07-31T04:39:16.390Z,95
2017-07-31T04:40:37.897Z,95
2017-07-31T04:42:00.038Z,100
2017-07-31T04:43:22.114Z,100
2017-07-31T04:44:44.590Z,105
2017-07-31T04:46:05.799Z,115
2017-07-31T04:47:28.263Z,110
2017-07-31T04:48:50.767Z,115
2017-07-31T04:50:12.379Z,120
2017-07-31T04:51:33.921Z,120
2017-07-31T04:52:56.219Z,120
2017-07-31T04:54:18.973Z,125
2017-07-31T04:55:40.800Z,125
2017-07-31T04:57:03.336Z,130
2017-07-31T04:58:25.483Z,130
2017-07-31T04:59:48.254Z,130
2017-07-31T05:01:09.788Z,130
2017-07-31T05:02:31.924Z,135
2017-07-31T05:03:54.069Z,135
2017-07-31T05:05:16.481Z,140
2017-07-31T05:06:38.641Z,145
2017-07-31T05:08:00.467Z,155
2017-07-31T05:09:21.979Z,160
2017-07-31T05:10:44.190Z,165
2017-07-31T05:12:05.489Z,180
2017-07-31T05:13:27.339Z,195
2017-07-31T05:14:49.495Z,315
2017-07-31T05:16:11.951Z,565
2017-07-31T05:17:33.771Z,645
2017-07-31T05:18:55.250Z,660
2017-07-31T05:20:17.141Z,705
2017-07-31T05:21:39.601Z,735
2017-07-31T05:23:01.421Z,750
2017-07-31T05:24:22.949Z,780
2017-07-31T05:25:44.541Z,825
2017-07-31T05:27:07.020Z,860
2017-07-31T05:28:28.946Z,900
2017-07-31T05:29:50.791Z,880
2017-07-31T05:31:12.950Z,855
2017-07-31T05:32:34.752Z,900
2017-07-31T05:33:56.890Z,940
2017-07-31T05:35:18.817Z,865
2017-07-31T05:36:40.391Z,915
2017-07-31T05:38:02.891Z,955
2017-07-31T05:39:25.059Z,930
2017-07-31T05:40:47.240Z,870
2017-07-31T05:42:09.731Z,865
2017-07-31T05:43:31.938Z,835
2017-07-31T05:44:53.783Z,830
2017-07-31T05:46:16.121Z,800
2017-07-31T05:47:38.621Z,790
2017-07-31T05:49:00.769Z,765
2017-07-31T05:50:22.646Z,740
2017-07-31T05:51:45.143Z,680
2017-07-31T05:53:07.600Z,670
2017-07-31T05:54:29.850Z,645
2017-07-31T05:55:52.455Z,620
2017-07-31T05:57:14.612Z,595
2017-07-31T05:58:36.770Z,580
2017-07-31T05:59:59.279Z,565
2017-07-31T06:01:21.169Z,560
2017-07-31T06:02:43.351Z,555
2017-07-31T06:04:05.517Z,535
2017-07-31T06:05:27.992Z,530
2017-07-31T06:06:49.865Z,520
2017-07-31T06:08:12.031Z,500
2017-07-31T06:09:34.559Z,515
2017-07-31T06:10:57.290Z,555
2017-07-31T06:12:19.450Z,575
2017-07-31T06:13:41.080Z,565
2017-07-31T06:15:03.321Z,540
2017-07-31T06:16:25.831Z,505
2017-07-31T06:17:47.060Z,475
2017-07-31T06:19:09.255Z,470
2017-07-31T06:20:30.595Z,475
2017-07-31T06:21:53.034Z,475
2017-07-31T06:23:15.051Z,465
2017-07-31T06:24:36.589Z,470
2017-07-31T06:25:58.130Z,475
2017-07-31T06:27:20.651Z,470
2017-07-31T06:28:42.517Z,465
2017-07-31T06:30:04.392Z,470
2017-07-31T06:31:26.317Z,470
2017-07-31T06:32:48.798Z,470
2017-07-31T06:34:10.329Z,470
2017-07-31T06:35:31.860Z,475
2017-07-31T06:36:53.712Z,480
2017-07-31T06:38:15.900Z,480
2017-07-31T06:39:38.381Z,480
2017-07-31T06:41:00.289Z,485
2017-07-31T06:42:22.140Z,480
2017-07-31T06:43:44.301Z,485
2017-07-31T06:45:06.238Z,480
2017-07-31T06:46:28.423Z,480
2017-07-31T06:47:50.788Z,485
2017-07-31T06:49:13.370Z,480
2017-07-31T06:50:35.586Z,480
2017-07-31T06:51:57.779Z,485
2017-07-31T06:53:19.961Z,490
2017-07-31T06:54:41.764Z,480
2017-07-31T06:56:03.941Z,490
2017-07-31T06:57:24.910Z,490
2017-07-31T06:58:46.860Z,490
2017-07-31T07:00:08.709Z,480
2017-07-31T07:01:31.220Z,485
2017-07-31T07:02:53.729Z,485
2017-07-31T07:04:15.602Z,490
2017-07-31T07:05:38.047Z,495
2017-07-31T07:06:59.591Z,495
2017-07-31T07:08:22.109Z,495
2017-07-31T07:09:43.981Z,495
2017-07-31T07:11:06.764Z,495
2017-07-31T07:12:28.362Z,490
2017-07-31T07:13:50.676Z,490
2017-07-31T07:15:12.570Z,505
2017-07-31T07:16:34.744Z,505
2017-07-31T07:17:56.296Z,510
2017-07-31T07:19:18.480Z,520
2017-07-31T07:20:41.032Z,510
2017-07-31T07:22:03.793Z,495
2017-07-31T07:23:25.350Z,490
2017-07-31T07:24:47.539Z,505
2017-07-31T07:26:09.408Z,505
2017-07-31T07:27:31.358Z,505
2017-07-31T07:28:53.320Z,515
2017-07-31T07:30:15.600Z,530
2017-07-31T07:31:37.460Z,500
2017-07-31T07:32:59.252Z,500
2017-07-31T07:34:20.790Z,510
2017-07-31T07:35:43.318Z,505
2017-07-31T07:37:05.330Z,235
2017-07-31T07:38:28.097Z,480
2017-07-31T07:39:50.319Z,455
2017-07-31T07:41:12.512Z,360
2017-07-31T07:42:34.340Z,435
2017-07-31T07:43:56.520Z,485
2017-07-31T07:45:18.411Z,455
2017-07-31T07:46:40.271Z,465
2017-07-31T07:48:02.362Z,450
2017-07-31T07:49:24.610Z,440
2017-07-31T07:50:46.803Z,425
2017-07-31T07:52:08.982Z,395
2017-07-31T07:53:31.172Z,470
2017-07-31T07:54:53.611Z,510
2017-07-31T07:56:16.121Z,535
2017-07-31T07:57:38.680Z,585
2017-07-31T07:59:00.546Z,595
2017-07-31T08:00:23.494Z,470
2017-07-31T08:01:45.808Z,570
2017-07-31T08:03:07.777Z,545
2017-07-31T08:04:29.639Z,510
2017-07-31T08:05:52.384Z,465
2017-07-31T08:07:14.559Z,445
2017-07-31T08:08:36.400Z,455
2017-07-31T08:09:58.888Z,480
2017-07-31T08:11:21.083Z,505
2017-07-31T08:12:43.249Z,480
2017-07-31T08:14:05.429Z,445
2017-07-31T08:15:27.912Z,375
2017-07-31T08:16:50.881Z,290
2017-07-31T08:18:13.369Z,265
2017-07-31T08:19:34.910Z,265
2017-07-31T08:20:57.405Z,255
2017-07-31T08:22:19.559Z,245
2017-07-31T08:23:41.432Z,245
2017-07-31T08:25:03.921Z,245
2017-07-31T08:26:26.122Z,250
2017-07-31T08:27:47.641Z,250
2017-07-31T08:29:09.820Z,250
2017-07-31T08:30:32.030Z,250
2017-07-31T08:31:53.892Z,245
2017-07-31T08:33:16.087Z,235
2017-07-31T08:34:38.082Z,235
2017-07-31T08:35:59.672Z,235
2017-07-31T08:37:21.921Z,240
2017-07-31T08:38:44.548Z,240
2017-07-31T08:40:06.763Z,240
2017-07-31T08:41:29.040Z,240
2017-07-31T08:42:50.602Z,245
2017-07-31T08:44:12.192Z,245
2017-07-31T08:45:34.061Z,250
2017-07-31T08:46:56.313Z,250
2017-07-31T08:48:18.525Z,255
2017-07-31T08:49:41.288Z,255
2017-07-31T08:51:02.520Z,255
2017-07-31T08:52:24.571Z,255
2017-07-31T08:53:47.059Z,265
2017-07-31T08:55:09.470Z,270
2017-07-31T08:56:31.442Z,260
2017-07-31T08:57:53.610Z,250
2017-07-31T08:59:15.156Z,245
2017-07-31T09:00:37.259Z,235
2017-07-31T09:01:59.255Z,230
2017-07-31T09:03:21.426Z,225
2017-07-31T09:04:43.490Z,220
2017-07-31T09:06:05.744Z,225
2017-07-31T09:07:27.968Z,220
2017-07-31T09:08:50.132Z,225
2017-07-31T09:10:11.475Z,230
2017-07-31T09:11:33.999Z,230
2017-07-31T09:12:55.530Z,235
2017-07-31T09:14:17.426Z,230
2017-07-31T09:15:39.699Z,230
2017-07-31T09:17:02.487Z,225
2017-07-31T09:18:25.007Z,220
2017-07-31T09:19:46.836Z,210
2017-07-31T09:21:09.324Z,205
2017-07-31T09:22:31.250Z,200
2017-07-31T09:23:53.140Z,200
2017-07-31T09:25:15.420Z,195
2017-07-31T09:26:37.708Z,195
2017-07-31T09:28:00.609Z,190
2017-07-31T09:29:22.847Z,190
2017-07-31T09:30:45.132Z,190
2017-07-31T09:32:07.649Z,185
2017-07-31T09:33:29.510Z,190
2017-07-31T09:34:52.009Z,190
2017-07-31T09:36:14.339Z,190
2017-07-31T09:37:36.522Z,190
2017-07-31T09:38:58.381Z,185
2017-07-31T09:40:20.320Z,185
2017-07-31T09:41:42.145Z,185
2017-07-31T09:43:04.630Z,185
2017-07-31T09:44:26.407Z,190
2017-07-31T09:45:48.260Z,190
2017-07-31T09:47:10.473Z,195
2017-07-31T09:48:32.721Z,195
2017-07-31T09:49:54.551Z,195
2017-07-31T09:51:17.014Z,195
2017-07-31T09:52:38.970Z,195
2017-07-31T09:54:01.154Z,190
2017-07-31T09:55:22.989Z,185
2017-07-31T09:56:45.541Z,180
2017-07-31T09:58:07.530Z,180
2017-07-31T09:59:30.019Z,180
2017-07-31T10:00:52.443Z,170
2017-07-31T10:02:14.297Z,175
2017-07-31T10:03:36.792Z,180
2017-07-31T10:04:59.006Z,185
2017-07-31T10:06:21.751Z,190
2017-07-31T10:07:43.919Z,190
2017-07-31T10:09:05.808Z,190
2017-07-31T10:10:27.760Z,200
2017-07-31T10:11:50.268Z,210
2017-07-31T10:13:11.937Z,225
2017-07-31T10:14:33.776Z,205
2017-07-31T10:15:55.957Z,195
2017-07-31T10:17:18.433Z,195
2017-07-31T10:18:39.989Z,215
2017-07-31T10:20:02.264Z,290
2017-07-31T10:21:24.439Z,240
2017-07-31T10:22:46.601Z,225
2017-07-31T10:24:08.786Z,220
2017-07-31T10:25:30.934Z,225
2017-07-31T10:26:52.792Z,280
2017-07-31T10:28:15.269Z,355
2017-07-31T10:29:37.218Z,415
2017-07-31T10:30:59.687Z,415
2017-07-31T10:32:21.869Z,415
2017-07-31T10:33:44.659Z,415
2017-07-31T10:35:06.878Z,375
2017-07-31T10:36:29.047Z,360
2017-07-31T10:37:50.902Z,325
2017-07-31T10:39:13.397Z,340
2017-07-31T10:40:35.585Z,420
2017-07-31T10:41:57.438Z,460
2017-07-31T10:43:19.599Z,400
2017-07-31T10:44:42.345Z,410
2017-07-31T10:46:04.192Z,375
2017-07-31T10:47:26.369Z,360
2017-07-31T10:48:48.902Z,425
2017-07-31T10:50:11.682Z,395
2017-07-31T10:51:34.182Z,395
2017-07-31T10:52:56.758Z,395
2017-07-31T10:54:19.280Z,415
2017-07-31T10:55:41.717Z,400
2017-07-31T10:57:03.880Z,330
2017-07-31T10:58:26.372Z,270
2017-07-31T10:59:48.540Z,250
2017-07-31T11:01:10.989Z,270
2017-07-31T11:02:33.471Z,250
2017-07-31T11:03:55.648Z,275
2017-07-31T11:05:17.497Z,345
2017-07-31T11:06:40.502Z,335
2017-07-31T11:08:02.682Z,370
2017-07-31T11:09:24.843Z,425
2017-07-31T11:10:46.813Z,375
2017-07-31T11:12:08.970Z,345
2017-07-31T11:13:31.290Z,320
2017-07-31T11:14:53.144Z,295
2017-07-31T11:16:15.019Z,270
2017-07-31T11:17:37.491Z,295
2017-07-31T11:18:59.654Z,370
2017-07-31T11:20:22.248Z,365
2017-07-31T11:21:44.739Z,340
2017-07-31T11:23:07.467Z,365
2017-07-31T11:24:30.094Z,365
2017-07-31T11:25:52.339Z,390
2017-07-31T11:27:14.539Z,430
2017-07-31T11:28:36.644Z,450
2017-07-31T11:29:58.812Z,470
2017-07-31T11:31:21.295Z,490
2017-07-31T11:32:43.450Z,450
2017-07-31T11:34:06.209Z,370
2017-07-31T11:35:28.709Z,315
2017-07-31T11:36:50.581Z,295
2017-07-31T11:38:12.813Z,290
2017-07-31T11:39:35.331Z,270
2017-07-31T11:40:57.813Z,255
2017-07-31T11:42:20.003Z,265
2017-07-31T11:43:42.503Z,280
2017-07-31T11:45:04.984Z,320
2017-07-31T11:46:27.458Z,365
2017-07-31T11:47:49.961Z,400
2017-07-31T11:49:11.821Z,375
2017-07-31T11:50:33.999Z,370
2017-07-31T11:51:55.879Z,345
2017-07-31T11:53:17.760Z,330
2017-07-31T11:54:40.256Z,365
2017-07-31T11:56:02.487Z,370
2017-07-31T11:57:24.749Z,410
2017-07-31T11:58:46.969Z,480
2017-07-31T12:00:08.820Z,540
2017-07-31T12:01:31.010Z,450
2017-07-31T12:02:53.491Z,405
2017-07-31T12:04:15.035Z,390
2017-07-31T12:05:40.256Z,385
2017-07-31T12:07:02.509Z,370
2017-07-31T12:08:24.374Z,355
2017-07-31T12:09:46.560Z,335
2017-07-31T12:11:08.720Z,330
2017-07-31T12:12:30.825Z,305
2017-07-31T12:13:53.009Z,360
2017-07-31T12:15:15.647Z,430
2017-07-31T12:16:37.509Z,455
2017-07-31T12:17:59.603Z,450
2017-07-31T12:19:21.968Z,425
2017-07-31T12:20:44.465Z,410
2017-07-31T12:22:06.625Z,380
2017-07-31T12:23:28.486Z,385
2017-07-31T12:24:50.748Z,380
2017-07-31T12:26:13.263Z,385
2017-07-31T12:27:35.441Z,390
2017-07-31T12:28:58.039Z,375
2017-07-31T12:30:19.880Z,340
2017-07-31T12:31:41.747Z,325
2017-07-31T12:33:03.737Z,305
2017-07-31T12:34:25.952Z,310
2017-07-31T12:35:47.799Z,350
2017-07-31T12:37:10.362Z,385
2017-07-31T12:38:32.982Z,375
2017-07-31T12:39:55.441Z,405
2017-07-31T12:41:17.429Z,380
2017-07-31T12:42:39.914Z,335
2017-07-31T12:44:02.100Z,320
2017-07-31T12:45:24.903Z,310
2017-07-31T12:46:47.334Z,350
2017-07-31T12:48:09.212Z,385
2017-07-31T12:49:31.519Z,385
2017-07-31T12:50:53.749Z,355
2017-07-31T12:52:15.616Z,345
2017-07-31T12:53:38.140Z,315
2017-07-31T12:55:00.427Z,300
2017-07-31T12:56:23.223Z,285
2017-07-31T12:57:45.851Z,285
2017-07-31T12:59:08.351Z,310
2017-07-31T13:00:30.541Z,325
2017-07-31T13:01:53.000Z,330
2017-07-31T13:03:14.880Z,365
2017-07-31T13:04:37.358Z,390
2017-07-31T13:05:59.630Z,370
2017-07-31T13:07:21.838Z,380
2017-07-31T13:08:43.369Z,365
2017-07-31T13:10:05.567Z,280
2017-07-31T13:11:28.055Z,245
2017-07-31T13:12:50.209Z,250
2017-07-31T13:14:12.370Z,245
2017-07-31T13:15:34.880Z,225
2017-07-31T13:16:56.470Z,200
2017-07-31T13:18:19.260Z,175
2017-07-31T13:19:41.441Z,155
2017-07-31T13:21:03.810Z,125
2017-07-31T13:22:26.013Z,130
2017-07-31T13:23:48.746Z,150
2017-07-31T13:25:10.590Z,165
2017-07-31T13:26:33.082Z,210
2017-07-31T13:27:55.685Z,285
2017-07-31T13:29:17.792Z,335
2017-07-31T13:30:39.670Z,345
2017-07-31T13:32:01.831Z,355
2017-07-31T13:33:23.998Z,390
2017-07-31T13:34:46.091Z,370
2017-07-31T13:36:08.594Z,265
2017-07-31T13:37:30.892Z,230
2017-07-31T13:38:53.388Z,260
2017-07-31T13:40:15.820Z,330
2017-07-31T13:41:38.469Z,365
2017-07-31T13:43:00.949Z,385
2017-07-31T13:44:23.647Z,410
2017-07-31T13:45:46.531Z,460
2017-07-31T13:47:09.071Z,440
2017-07-31T13:48:31.350Z,435
2017-07-31T13:49:53.548Z,410
2017-07-31T13:51:16.391Z,375
2017-07-31T13:52:38.558Z,365
2017-07-31T13:54:00.411Z,360
2017-07-31T13:55:22.893Z,335
2017-07-31T13:56:44.708Z,320
2017-07-31T13:58:06.975Z,315
2017-07-31T13:59:29.183Z,305
2017-07-31T14:00:51.408Z,295
2017-07-31T14:02:13.823Z,285
2017-07-31T14:03:36.357Z,285
2017-07-31T14:04:57.889Z,280
2017-07-31T14:06:20.390Z,260
2017-07-31T14:07:42.916Z,245
2017-07-31T14:09:04.195Z,265
2017-07-31T14:10:26.678Z,295
2017-07-31T14:11:48.850Z,330
2017-07-31T14:13:11.393Z,335
2017-07-31T14:14:33.939Z,355
2017-07-31T14:15:56.198Z,375
2017-07-31T14:17:18.058Z,355
2017-07-31T14:18:40.663Z,320
2017-07-31T14:20:03.193Z,285
2017-07-31T14:21:25.679Z,315
2017-07-31T14:22:48.178Z,290
2017-07-31T14:24:10.338Z,300
2017-07-31T14:25:32.247Z,300
2017-07-31T14:26:54.810Z,350
2017-07-31T14:28:16.975Z,360
2017-07-31T14:29:39.779Z,345
2017-07-31T14:31:02.379Z,365
2017-07-31T14:32:24.888Z,375
2017-07-31T14:33:47.060Z,370
2017-07-31T14:35:09.858Z,340
2017-07-31T14:36:31.398Z,315
2017-07-31T14:37:53.560Z,305
2017-07-31T14:39:15.478Z,300
2017-07-31T14:40:38.031Z,265
2017-07-31T14:41:59.871Z,230
2017-07-31T14:43:21.448Z,235
2017-07-31T14:44:43.639Z,235
2017-07-31T14:46:06.429Z,250
2017-07-31T14:47:29.049Z,275
2017-07-31T14:48:51.219Z,270
2017-07-31T14:50:13.489Z,255
2017-07-31T14:51:36.423Z,230
2017-07-31T14:52:58.907Z,220
2017-07-31T14:54:21.252Z,250
2017-07-31T14:55:43.759Z,280
2017-07-31T14:57:06.670Z,290
2017-07-31T14:58:28.876Z,290
2017-07-31T14:59:50.720Z,280
2017-07-31T15:01:13.318Z,275
2017-07-31T15:02:35.957Z,280
2017-07-31T15:03:57.804Z,260
2017-07-31T15:05:20.060Z,285
2017-07-31T15:06:42.559Z,280
2017-07-31T15:08:05.488Z,255
2017-07-31T15:09:27.669Z,225
2017-07-31T15:10:49.881Z,240
2017-07-31T15:12:12.168Z,240
2017-07-31T15:13:34.041Z,245
2017-07-31T15:14:56.519Z,245
2017-07-31T15:16:18.811Z,240
2017-07-31T15:17:40.652Z,235
2017-07-31T15:19:03.159Z,210
2017-07-31T15:20:25.360Z,200
2017-07-31T15:21:47.547Z,205
2017-07-31T15:23:09.729Z,230
2017-07-31T15:24:31.894Z,285
2017-07-31T15:25:54.380Z,335
2017-07-31T15:27:15.943Z,340
2017-07-31T15:28:38.139Z,345
2017-07-31T15:30:00.248Z,340
2017-07-31T15:31:22.748Z,335
2017-07-31T15:32:45.250Z,325
2017-07-31T15:34:07.758Z,320
2017-07-31T15:35:30.232Z,315
2017-07-31T15:36:52.098Z,310
2017-07-31T15:38:14.603Z,305
2017-07-31T15:39:36.878Z,295
2017-07-31T15:40:59.442Z,290
2017-07-31T15:42:21.743Z,285
2017-07-31T15:43:44.228Z,285
2017-07-31T15:45:06.572Z,270
2017-07-31T15:46:29.388Z,255
2017-07-31T15:47:51.584Z,245
2017-07-31T15:49:13.781Z,260
2017-07-31T15:50:36.379Z,270
2017-07-31T15:51:58.530Z,270
2017-07-31T15:53:20.802Z,270
2017-07-31T15:54:43.429Z,265
2017-07-31T15:56:05.932Z,250
2017-07-31T15:57:28.463Z,235
2017-07-31T15:58:50.989Z,225
2017-07-31T16:00:13.307Z,210
2017-07-31T16:01:35.172Z,210
2017-07-31T16:02:57.681Z,215
2017-07-31T16:04:19.750Z,215
2017-07-31T16:05:41.726Z,220
2017-07-31T16:07:03.934Z,220
2017-07-31T16:08:26.037Z,215
2017-07-31T16:09:48.559Z,205
2017-07-31T16:11:10.500Z,200
2017-07-31T16:12:33.040Z,195
2017-07-31T16:13:55.550Z,200
2017-07-31T16:15:18.016Z,205
2017-07-31T16:16:39.890Z,200
2017-07-31T16:18:02.412Z,195
2017-07-31T16:19:24.967Z,210
2017-07-31T16:20:46.611Z,210
2017-07-31T16:22:08.788Z,210
2017-07-31T16:23:30.970Z,210
2017-07-31T16:24:53.424Z,215
2017-07-31T16:26:15.979Z,215
2017-07-31T16:27:38.493Z,230
2017-07-31T16:29:01.066Z,260
2017-07-31T16:30:23.500Z,285
2017-07-31T16:31:45.799Z,300
2017-07-31T16:33:08.306Z,290
2017-07-31T16:34:30.173Z,275
2017-07-31T16:35:52.639Z,280
2017-07-31T16:37:15.212Z,245
2017-07-31T16:38:37.379Z,235
2017-07-31T16:39:59.947Z,215
2017-07-31T16:41:22.147Z,205
2017-07-31T16:42:44.030Z,205
2017-07-31T16:44:06.608Z,200
2017-07-31T16:45:29.228Z,200
2017-07-31T16:46:51.699Z,200
2017-07-31T16:48:13.891Z,195
2017-07-31T16:49:36.407Z,205
2017-07-31T16:50:58.273Z,205
2017-07-31T16:52:20.529Z,205
2017-07-31T16:53:42.752Z,205
2017-07-31T16:55:05.277Z,215
2017-07-31T16:56:27.787Z,230
2017-07-31T16:57:50.287Z,225
2017-07-31T16:59:12.898Z,215
2017-07-31T17:00:34.778Z,205
2017-07-31T17:01:56.662Z,185
2017-07-31T17:03:19.548Z,195
2017-07-31T17:04:41.180Z,190
2017-07-31T17:06:03.712Z,190
2017-07-31T17:07:26.283Z,175
2017-07-31T17:08:49.142Z,165
2017-07-31T17:10:11.339Z,165
2017-07-31T17:11:33.529Z,165
2017-07-31T17:12:55.745Z,170
2017-07-31T17:14:18.224Z,185
2017-07-31T17:15:40.419Z,175
2017-07-31T17:17:02.928Z,165
2017-07-31T17:18:24.798Z,150
2017-07-31T17:19:46.968Z,125
2017-07-31T17:21:09.510Z,110
2017-07-31T17:22:31.462Z,100
2017-07-31T17:23:53.629Z,105
2017-07-31T17:25:15.809Z,110
2017-07-31T17:26:38.121Z,120
2017-07-31T17:28:00.297Z,125
2017-07-31T17:29:22.498Z,135
2017-07-31T17:30:44.950Z,155
2017-07-31T17:32:07.178Z,165
2017-07-31T17:33:29.817Z,160
2017-07-31T17:34:51.687Z,140
2017-07-31T17:36:14.148Z,120
2017-07-31T17:37:36.079Z,120
2017-07-31T17:38:58.248Z,130
2017-07-31T17:40:20.115Z,140
2017-07-31T17:41:42.880Z,130
2017-07-31T17:43:05.089Z,105
2017-07-31T17:44:27.638Z,90
2017-07-31T17:45:49.930Z,80
2017-07-31T17:47:12.394Z,75
2017-07-31T17:48:34.687Z,70
2017-07-31T17:49:56.589Z,70
2017-07-31T17:51:18.833Z,75
2017-07-31T17:52:41.629Z,75
2017-07-31T17:54:04.223Z,80
2017-07-31T17:55:26.688Z,65
2017-07-31T17:56:48.698Z,60
2017-07-31T17:58:10.893Z,70
2017-07-31T17:59:33.114Z,65
2017-07-31T18:00:55.328Z,60
2017-07-31T18:02:17.536Z,55
2017-07-31T18:03:40.379Z,45
2017-07-31T18:05:02.567Z,35
2017-07-31T18:06:25.090Z,35
2017-07-31T18:07:47.602Z,40
2017-07-31T18:09:10.146Z,40
2017-07-31T18:10:32.349Z,40
2017-07-31T18:11:54.862Z,45
2017-07-31T18:13:17.073Z,45
2017-07-31T18:14:39.517Z,45
2017-07-31T18:16:01.713Z,45
2017-07-31T18:17:23.622Z,45
2017-07-31T18:18:45.486Z,50
2017-07-31T18:20:07.665Z,50
2017-07-31T18:21:29.969Z,55
2017-07-31T18:22:52.472Z,60
2017-07-31T18:24:14.668Z,65
2017-07-31T18:25:37.471Z,70
2017-07-31T18:26:59.758Z,75
2017-07-31T18:28:21.923Z,75
2017-07-31T18:29:44.096Z,70
2017-07-31T18:31:06.599Z,65
2017-07-31T18:32:28.449Z,60
2017-07-31T18:33:50.979Z,55
2017-07-31T18:35:13.506Z,55
2017-07-31T18:36:36.327Z,55
2017-07-31T18:37:58.238Z,50
2017-07-31T18:39:20.453Z,50
2017-07-31T18:40:42.653Z,45
2017-07-31T18:42:05.406Z,45
2017-07-31T18:43:27.901Z,40
2017-07-31T18:44:49.419Z,35
2017-07-31T18:46:11.611Z,35
2017-07-31T18:47:34.349Z,30
2017-07-31T18:48:56.582Z,30
2017-07-31T18:50:18.833Z,25
2017-07-31T18:51:41.021Z,25
2017-07-31T18:53:02.931Z,25
2017-07-31T18:54:25.451Z,20
2017-07-31T18:55:47.921Z,15
2017-07-31T18:57:09.888Z,15
2017-07-31T18:58:32.379Z,15
2017-07-31T18:59:54.599Z,15
2017-07-31T19:01:17.118Z,15
2017-07-31T19:02:38.979Z,10
2017-07-31T19:04:01.733Z,10
2017-07-31T19:05:24.410Z,10
2017-07-31T19:06:46.609Z,10
2017-07-31T19:08:09.130Z,10
2017-07-31T19:09:31.867Z,10
2017-07-31T19:10:54.192Z,10
2017-07-31T19:12:16.412Z,5